createdAt,value
2018-04-09T00:00:32.080Z,0
2018-04-09T00:01:31.968Z,0
2018-04-09T00:02:32.040Z,0
2018-04-09T00:03:31.970Z,0
2018-04-09T00:04:32.041Z,0
2018-04-09T00:05:31.976Z,0
2018-04-09T00:06:32.041Z,0
2018-04-09T00:07:31.977Z,0
2018-04-09T00:08:32.040Z,0
2018-04-09T00:09:32.042Z,0
2018-04-09T00:10:31.976Z,0
2018-04-09T00:11:32.058Z,0
2018-04-09T00:12:31.967Z,0
2018-04-09T00:13:31.950Z,0
2018-04-09T00:14:32.061Z,0
2018-04-09T00:15:32.070Z,0
2018-04-09T00:16:32.002Z,0
2018-04-09T00:17:32.015Z,0
2018-04-09T00:18:31.952Z,0
2018-04-09T00:19:31.973Z,0
2018-04-09T00:20:32.072Z,0
2018-04-09T00:21:32.063Z,0
2018-04-09T00:22:31.992Z,0
2018-04-09T00:23:32.082Z,0
2018-04-09T00:24:32.033Z,0
2018-04-09T00:25:31.993Z,0
2018-04-09T00:26:32.036Z,0
2018-04-09T00:27:32.000Z,0
2018-04-09T00:28:31.984Z,0
2018-04-09T00:29:32.057Z,0
2018-04-09T00:30:32.095Z,0
2018-04-09T00:31:32.100Z,0
2018-04-09T00:32:32.062Z,0
2018-04-09T00:33:32.032Z,0
2018-04-09T00:34:32.069Z,0
2018-04-09T00:35:31.982Z,0
2018-04-09T00:36:32.123Z,0
2018-04-09T00:37:31.980Z,0
2018-04-09T00:38:32.087Z,0
2018-04-09T00:39:32.067Z,0
2018-04-09T00:40:32.034Z,0
2018-04-09T00:41:31.983Z,0
2018-04-09T00:42:32.082Z,0
2018-04-09T00:43:32.075Z,0
2018-04-09T00:44:32.077Z,0
2018-04-09T00:45:32.104Z,0
2018-04-09T00:46:32.101Z,0
2018-04-09T00:47:32.107Z,0
2018-04-09T00:48:32.089Z,0
2018-04-09T00:49:32.079Z,0
2018-04-09T00:50:31.993Z,0
2018-04-09T00:51:32.106Z,0
2018-04-09T00:52:32.052Z,0
2018-04-09T00:53:32.009Z,0
2018-04-09T00:54:32.083Z,0
2018-04-09T00:55:32.009Z,0
2018-04-09T00:56:32.083Z,0
2018-04-09T00:57:32.010Z,0
2018-04-09T00:58:32.084Z,0
2018-04-09T00:59:32.046Z,0
2018-04-09T01:00:32.133Z,0
2018-04-09T01:01:32.014Z,0
2018-04-09T01:02:32.054Z,0
2018-04-09T01:03:32.016Z,0
2018-04-09T01:04:32.074Z,0
2018-04-09T01:05:32.012Z,0
2018-04-09T01:06:32.090Z,0
2018-04-09T01:07:32.013Z,0
2018-04-09T01:08:32.014Z,0
2018-04-09T01:09:32.095Z,0
2018-04-09T01:10:32.016Z,0
2018-04-09T01:11:32.026Z,0
2018-04-09T01:12:32.110Z,0
2018-04-09T01:13:32.117Z,0
2018-04-09T01:14:32.120Z,0
2018-04-09T01:15:32.118Z,0
2018-04-09T01:16:32.056Z,0
2018-04-09T01:17:32.028Z,0
2018-04-09T01:18:32.027Z,0
2018-04-09T01:19:32.094Z,0
2018-04-09T01:20:32.098Z,0
2018-04-09T01:21:32.013Z,0
2018-04-09T01:22:32.088Z,0
2018-04-09T01:23:32.096Z,0
2018-04-09T01:24:32.152Z,0
2018-04-09T01:25:32.129Z,0
2018-04-09T01:26:32.128Z,0
2018-04-09T01:27:32.118Z,0
2018-04-09T01:28:32.107Z,0
2018-04-09T01:29:32.104Z,0
2018-04-09T01:30:32.096Z,0
2018-04-09T01:31:32.100Z,0
2018-04-09T01:32:32.044Z,0
2018-04-09T01:33:32.095Z,0
2018-04-09T01:34:32.016Z,0
2018-04-09T01:35:32.096Z,0
2018-04-09T01:36:32.051Z,0
2018-04-09T01:37:32.096Z,0
2018-04-09T01:38:32.031Z,0
2018-04-09T01:39:32.098Z,0
2018-04-09T01:40:32.023Z,0
2018-04-09T01:41:32.096Z,0
2018-04-09T01:42:32.039Z,0
2018-04-09T01:43:32.037Z,0
2018-04-09T01:44:32.037Z,0
2018-04-09T01:45:32.112Z,0
2018-04-09T01:46:32.114Z,0
2018-04-09T01:47:32.038Z,0
2018-04-09T01:48:32.038Z,0
2018-04-09T01:49:32.038Z,0
2018-04-09T01:50:32.112Z,0
2018-04-09T01:51:32.046Z,0
2018-04-09T01:52:32.047Z,0
2018-04-09T01:53:32.107Z,0
2018-04-09T01:54:32.200Z,0
2018-04-09T01:55:32.135Z,0
2018-04-09T01:56:32.150Z,0
2018-04-09T01:57:32.145Z,0
2018-04-09T01:58:32.114Z,0
2018-04-09T01:59:32.051Z,0
2018-04-09T02:00:32.094Z,0
2018-04-09T02:01:32.116Z,0
2018-04-09T02:02:32.109Z,0
2018-04-09T02:03:32.035Z,0
2018-04-09T02:04:32.111Z,0
2018-04-09T02:05:32.040Z,0
2018-04-09T02:06:32.120Z,0
2018-04-09T02:07:32.043Z,0
2018-04-09T02:08:32.113Z,0
2018-04-09T02:09:32.037Z,0
2018-04-09T02:10:32.117Z,0
2018-04-09T02:11:32.041Z,0
2018-04-09T02:12:32.125Z,0
2018-04-09T02:13:32.127Z,0
2018-04-09T02:14:32.129Z,0
2018-04-09T02:15:32.090Z,0
2018-04-09T02:16:32.130Z,0
2018-04-09T02:17:32.127Z,0
2018-04-09T02:18:32.128Z,0
2018-04-09T02:19:32.135Z,0
2018-04-09T02:20:32.137Z,0
2018-04-09T02:21:32.064Z,0
2018-04-09T02:22:32.077Z,0
2018-04-09T02:23:32.127Z,0
2018-04-09T02:24:32.062Z,0
2018-04-09T02:25:32.062Z,0
2018-04-09T02:26:32.139Z,0
2018-04-09T02:27:32.157Z,0
2018-04-09T02:28:32.031Z,0
2018-04-09T02:29:32.092Z,0
2018-04-09T02:30:32.067Z,0
2018-04-09T02:31:32.033Z,0
2018-04-09T02:32:32.106Z,0
2018-04-09T02:33:32.136Z,0
2018-04-09T02:34:32.116Z,0
2018-04-09T02:35:32.059Z,0
2018-04-09T02:36:32.168Z,0
2018-04-09T02:37:32.150Z,0
2018-04-09T02:38:32.125Z,0
2018-04-09T02:39:32.099Z,0
2018-04-09T02:40:32.200Z,0
2018-04-09T02:41:32.113Z,0
2018-04-09T02:42:32.141Z,0
2018-04-09T02:43:32.067Z,0
2018-04-09T02:44:32.173Z,0
2018-04-09T02:45:32.208Z,0
2018-04-09T02:46:32.143Z,0
2018-04-09T02:47:32.069Z,0
2018-04-09T02:48:32.128Z,0
2018-04-09T02:49:32.152Z,0
2018-04-09T02:50:32.087Z,0
2018-04-09T02:51:32.085Z,0
2018-04-09T02:52:32.083Z,0
2018-04-09T02:53:32.155Z,0
2018-04-09T02:54:32.152Z,0
2018-04-09T02:55:32.199Z,0
2018-04-09T02:56:32.080Z,0
2018-04-09T02:57:32.191Z,0
2018-04-09T02:58:32.089Z,0
2018-04-09T02:59:32.085Z,0
2018-04-09T03:00:32.157Z,0
2018-04-09T03:01:32.084Z,0
2018-04-09T03:02:32.161Z,0
2018-04-09T03:03:32.136Z,0
2018-04-09T03:04:32.192Z,0
2018-04-09T03:05:32.193Z,0
2018-04-09T03:06:32.168Z,0
2018-04-09T03:07:32.124Z,0
2018-04-09T03:08:32.162Z,0
2018-04-09T03:09:32.077Z,0
2018-04-09T03:10:32.094Z,0
2018-04-09T03:11:32.160Z,0
2018-04-09T03:12:32.087Z,0
2018-04-09T03:13:32.154Z,0
2018-04-09T03:14:32.081Z,0
2018-04-09T03:15:32.154Z,0
2018-04-09T03:16:32.093Z,0
2018-04-09T03:17:32.159Z,0
2018-04-09T03:18:32.116Z,0
2018-04-09T03:19:32.159Z,0
2018-04-09T03:20:32.088Z,0
2018-04-09T03:21:32.158Z,0
2018-04-09T03:22:32.147Z,0
2018-04-09T03:23:32.206Z,0
2018-04-09T03:24:32.072Z,0
2018-04-09T03:25:32.197Z,0
2018-04-09T03:26:32.072Z,0
2018-04-09T03:27:32.089Z,0
2018-04-09T03:28:32.195Z,0
2018-04-09T03:29:32.152Z,0
2018-04-09T03:30:32.152Z,0
2018-04-09T03:31:32.142Z,0
2018-04-09T03:32:32.190Z,0
2018-04-09T03:33:32.179Z,0
2018-04-09T03:34:32.161Z,0
2018-04-09T03:35:32.106Z,0
2018-04-09T03:36:32.165Z,0
2018-04-09T03:37:32.109Z,0
2018-04-09T03:38:32.143Z,0
2018-04-09T03:39:32.063Z,0
2018-04-09T03:40:32.138Z,0
2018-04-09T03:41:32.070Z,0
2018-04-09T03:42:32.081Z,0
2018-04-09T03:43:32.114Z,0
2018-04-09T03:44:32.239Z,0
2018-04-09T03:45:32.177Z,0
2018-04-09T03:46:32.099Z,0
2018-04-09T03:47:32.122Z,0
2018-04-09T03:48:32.181Z,0
2018-04-09T03:49:32.180Z,0
2018-04-09T03:50:32.219Z,0
2018-04-09T03:51:32.211Z,0
2018-04-09T03:52:32.152Z,0
2018-04-09T03:53:32.184Z,0
2018-04-09T03:54:32.182Z,0
2018-04-09T03:55:32.213Z,0
2018-04-09T03:56:32.244Z,0
2018-04-09T03:57:32.222Z,0
2018-04-09T03:58:32.221Z,0
2018-04-09T03:59:32.093Z,0
2018-04-09T04:00:32.224Z,0
2018-04-09T04:01:32.224Z,0
2018-04-09T04:02:32.099Z,0
2018-04-09T04:03:32.153Z,0
2018-04-09T04:04:32.095Z,0
2018-04-09T04:05:32.267Z,0
2018-04-09T04:06:32.153Z,0
2018-04-09T04:07:32.220Z,0
2018-04-09T04:08:32.100Z,0
2018-04-09T04:09:32.200Z,0
2018-04-09T04:10:32.131Z,0
2018-04-09T04:11:32.204Z,0
2018-04-09T04:12:32.192Z,0
2018-04-09T04:13:32.124Z,0
2018-04-09T04:14:32.191Z,0
2018-04-09T04:15:32.122Z,0
2018-04-09T04:16:32.194Z,0
2018-04-09T04:17:32.125Z,0
2018-04-09T04:18:32.195Z,0
2018-04-09T04:19:32.125Z,0
2018-04-09T04:20:32.196Z,0
2018-04-09T04:21:32.130Z,0
2018-04-09T04:22:32.201Z,0
2018-04-09T04:23:32.173Z,0
2018-04-09T04:24:32.226Z,0
2018-04-09T04:25:32.211Z,0
2018-04-09T04:26:32.185Z,0
2018-04-09T04:27:32.168Z,0
2018-04-09T04:28:32.287Z,0
2018-04-09T04:29:32.236Z,0
2018-04-09T04:30:32.125Z,0
2018-04-09T04:31:32.239Z,0
2018-04-09T04:32:32.247Z,0
2018-04-09T04:33:32.285Z,0
2018-04-09T04:34:32.127Z,0
2018-04-09T04:35:32.208Z,0
2018-04-09T04:36:32.176Z,0
2018-04-09T04:37:32.181Z,0
2018-04-09T04:38:32.244Z,0
2018-04-09T04:39:32.214Z,0
2018-04-09T04:40:32.193Z,0
2018-04-09T04:41:32.253Z,0
2018-04-09T04:42:32.251Z,0
2018-04-09T04:43:32.235Z,0
2018-04-09T04:44:32.222Z,0
2018-04-09T04:45:32.137Z,0
2018-04-09T04:46:32.280Z,0
2018-04-09T04:47:32.277Z,0
2018-04-09T04:48:32.200Z,0
2018-04-09T04:49:32.184Z,0
2018-04-09T04:50:32.142Z,0
2018-04-09T04:51:32.222Z,0
2018-04-09T04:52:32.143Z,0
2018-04-09T04:53:32.221Z,0
2018-04-09T04:54:32.221Z,0
2018-04-09T04:55:32.201Z,0
2018-04-09T04:56:32.226Z,0
2018-04-09T04:57:32.191Z,0
2018-04-09T04:58:32.144Z,0
2018-04-09T04:59:32.191Z,0
2018-04-09T05:00:32.125Z,0
2018-04-09T05:01:32.228Z,0
2018-04-09T05:02:32.219Z,0
2018-04-09T05:03:32.214Z,0
2018-04-09T05:04:32.191Z,0
2018-04-09T05:05:32.109Z,0
2018-04-09T05:06:32.132Z,0
2018-04-09T05:07:32.221Z,0
2018-04-09T05:08:32.177Z,0
2018-04-09T05:09:32.161Z,0
2018-04-09T05:10:32.137Z,0
2018-04-09T05:11:32.256Z,0
2018-04-09T05:12:32.225Z,0
2018-04-09T05:13:32.227Z,14
2018-04-09T05:14:32.223Z,16
2018-04-09T05:15:32.191Z,18
2018-04-09T05:16:32.189Z,19
2018-04-09T05:17:32.111Z,20
2018-04-09T05:18:32.141Z,21
2018-04-09T05:19:32.227Z,21
2018-04-09T05:20:32.226Z,21
2018-04-09T05:21:32.233Z,23
2018-04-09T05:22:32.174Z,24
2018-04-09T05:23:32.177Z,26
2018-04-09T05:24:32.226Z,26
2018-04-09T05:25:32.215Z,28
2018-04-09T05:26:32.219Z,28
2018-04-09T05:27:32.172Z,29
2018-04-09T05:28:32.172Z,30
2018-04-09T05:29:32.176Z,32
2018-04-09T05:30:32.180Z,32
2018-04-09T05:31:32.176Z,34
2018-04-09T05:32:32.144Z,35
2018-04-09T05:33:32.246Z,36
2018-04-09T05:34:32.209Z,37
2018-04-09T05:35:32.277Z,38
2018-04-09T05:36:32.284Z,40
2018-04-09T05:37:32.236Z,42
2018-04-09T05:38:32.245Z,41
2018-04-09T05:39:32.250Z,42
2018-04-09T05:40:32.214Z,44
2018-04-09T05:41:32.308Z,45
2018-04-09T05:42:32.207Z,46
2018-04-09T05:43:32.244Z,45
2018-04-09T05:44:32.240Z,47
2018-04-09T05:45:32.181Z,48
2018-04-09T05:46:32.189Z,50
2018-04-09T05:47:32.173Z,51
2018-04-09T05:48:32.126Z,51
2018-04-09T05:49:32.251Z,53
2018-04-09T05:50:32.249Z,48
2018-04-09T05:51:32.253Z,54
2018-04-09T05:52:32.353Z,56
2018-04-09T05:53:32.262Z,56
2018-04-09T05:54:32.222Z,57
2018-04-09T05:55:32.178Z,59
2018-04-09T05:56:32.257Z,52
2018-04-09T05:57:32.195Z,60
2018-04-09T05:58:32.188Z,62
2018-04-09T05:59:32.301Z,62
2018-04-09T06:00:32.183Z,64
2018-04-09T06:01:32.306Z,64
2018-04-09T06:02:32.225Z,64
2018-04-09T06:03:32.191Z,63
2018-04-09T06:04:32.244Z,67
2018-04-09T06:05:32.337Z,69
2018-04-09T06:06:32.321Z,69
2018-04-09T06:07:32.243Z,70
2018-04-09T06:08:32.304Z,59
2018-04-09T06:09:32.265Z,73
2018-04-09T06:10:32.170Z,74
2018-04-09T06:11:32.295Z,75
2018-04-09T06:12:32.201Z,76
2018-04-09T06:13:32.269Z,77
2018-04-09T06:14:32.205Z,73
2018-04-09T06:15:32.170Z,64
2018-04-09T06:16:32.203Z,80
2018-04-09T06:17:32.275Z,81
2018-04-09T06:18:32.271Z,83
2018-04-09T06:19:32.213Z,83
2018-04-09T06:20:32.208Z,83
2018-04-09T06:21:32.277Z,83
2018-04-09T06:22:32.305Z,85
2018-04-09T06:23:32.315Z,87
2018-04-09T06:24:32.301Z,88
2018-04-09T06:25:32.301Z,89
2018-04-09T06:26:32.256Z,89
2018-04-09T06:27:32.301Z,92
2018-04-09T06:28:32.252Z,92
2018-04-09T06:29:32.289Z,95
2018-04-09T06:30:32.260Z,96
2018-04-09T06:31:32.285Z,97
2018-04-09T06:32:32.183Z,98
2018-04-09T06:33:32.167Z,96
2018-04-09T06:35:32.140Z,102
2018-04-09T06:36:32.234Z,103
2018-04-09T06:37:32.212Z,104
2018-04-09T06:38:32.143Z,105
2018-04-09T06:39:32.141Z,106
2018-04-09T06:40:32.192Z,109
2018-04-09T06:41:32.236Z,109
2018-04-09T06:42:32.220Z,110
2018-04-09T06:43:32.220Z,111
2018-04-09T06:44:32.293Z,111
2018-04-09T06:45:32.302Z,113
2018-04-09T06:46:32.220Z,156
2018-04-09T06:47:32.294Z,158
2018-04-09T06:48:32.230Z,160
2018-04-09T06:49:32.295Z,162
2018-04-09T06:50:32.329Z,164
2018-04-09T06:51:32.222Z,167
2018-04-09T06:52:32.264Z,187
2018-04-09T06:53:32.330Z,193
2018-04-09T06:54:32.317Z,196
2018-04-09T06:55:32.312Z,200
2018-04-09T06:56:32.294Z,199
2018-04-09T06:57:32.335Z,201
2018-04-09T06:58:32.299Z,207
2018-04-09T06:59:32.317Z,209
2018-04-09T07:00:32.264Z,232
2018-04-09T07:01:32.323Z,237
2018-04-09T07:02:32.297Z,251
2018-04-09T07:03:32.303Z,255
2018-04-09T07:04:32.319Z,268
2018-04-09T07:05:32.306Z,271
2018-04-09T07:06:32.217Z,275
2018-04-09T07:07:32.299Z,276
2018-04-09T07:08:32.341Z,303
2018-04-09T07:09:32.278Z,306
2018-04-09T07:10:32.333Z,310
2018-04-09T07:11:32.237Z,315
2018-04-09T07:12:32.340Z,317
2018-04-09T07:13:32.276Z,321
2018-04-09T07:14:32.229Z,323
2018-04-09T07:15:32.226Z,323
2018-04-09T07:16:32.289Z,334
2018-04-09T07:17:32.234Z,363
2018-04-09T07:18:32.289Z,367
2018-04-09T07:19:32.231Z,371
2018-04-09T07:20:32.272Z,374
2018-04-09T07:21:32.238Z,374
2018-04-09T07:22:32.316Z,379
2018-04-09T07:23:32.245Z,383
2018-04-09T07:24:32.314Z,386
2018-04-09T07:25:32.248Z,389
2018-04-09T07:26:32.320Z,394
2018-04-09T07:27:32.206Z,397
2018-04-09T07:28:32.244Z,401
2018-04-09T07:29:32.318Z,322
2018-04-09T07:30:32.248Z,436
2018-04-09T07:31:32.322Z,435
2018-04-09T07:32:32.272Z,435
2018-04-09T07:33:32.344Z,430
2018-04-09T07:34:32.217Z,442
2018-04-09T07:35:32.320Z,441
2018-04-09T07:36:32.228Z,447
2018-04-09T07:37:32.300Z,451
2018-04-09T07:38:32.229Z,454
2018-04-09T07:39:32.322Z,452
2018-04-09T07:40:32.342Z,462
2018-04-09T07:41:32.262Z,474
2018-04-09T07:42:32.260Z,479
2018-04-09T07:43:32.269Z,492
2018-04-09T07:44:32.141Z,493
2018-04-09T07:45:32.171Z,493
2018-04-09T07:46:32.146Z,503
2018-04-09T07:47:32.151Z,516
2018-04-09T07:48:32.175Z,529
2018-04-09T07:49:32.197Z,535
2018-04-09T07:50:32.144Z,547
2018-04-09T07:51:32.255Z,557
2018-04-09T07:52:32.202Z,567
2018-04-09T07:53:32.311Z,583
2018-04-09T07:54:32.334Z,592
2018-04-09T07:55:32.238Z,601
2018-04-09T07:56:32.299Z,611
2018-04-09T07:57:32.258Z,618
2018-04-09T07:58:32.354Z,616
2018-04-09T07:59:32.330Z,562
2018-04-09T08:00:32.238Z,489
2018-04-09T08:01:32.327Z,497
2018-04-09T08:02:32.328Z,530
2018-04-09T08:03:32.299Z,514
2018-04-09T08:04:32.331Z,418
2018-04-09T08:05:32.332Z,356
2018-04-09T08:06:32.224Z,336
2018-04-09T08:07:32.259Z,319
2018-04-09T08:08:32.334Z,295
2018-04-09T08:09:32.332Z,316
2018-04-09T08:10:32.237Z,339
2018-04-09T08:11:32.335Z,401
2018-04-09T08:12:32.261Z,434
2018-04-09T08:13:32.275Z,444
2018-04-09T08:14:32.278Z,437
2018-04-09T08:15:32.249Z,520
2018-04-09T08:16:32.347Z,533
2018-04-09T08:17:32.446Z,532
2018-04-09T08:18:32.347Z,468
2018-04-09T08:19:32.278Z,379
2018-04-09T08:20:32.351Z,375
2018-04-09T08:21:32.282Z,377
2018-04-09T08:22:32.281Z,321
2018-04-09T08:23:32.351Z,339
2018-04-09T08:24:32.292Z,318
2018-04-09T08:25:32.355Z,308
2018-04-09T08:26:32.283Z,376
2018-04-09T08:27:32.354Z,343
2018-04-09T08:28:32.287Z,317
2018-04-09T08:29:32.284Z,320
2018-04-09T08:30:32.287Z,384
2018-04-09T08:31:32.289Z,462
2018-04-09T08:32:32.357Z,551
2018-04-09T08:33:32.353Z,511
2018-04-09T08:34:32.281Z,448
2018-04-09T08:35:32.357Z,501
2018-04-09T08:36:32.362Z,569
2018-04-09T08:37:32.263Z,620
2018-04-09T08:38:32.321Z,684
2018-04-09T08:39:32.320Z,665
2018-04-09T08:40:32.360Z,567
2018-04-09T08:41:32.417Z,599
2018-04-09T08:42:32.406Z,658
2018-04-09T08:43:32.287Z,631
2018-04-09T08:44:32.280Z,631
2018-04-09T08:45:32.305Z,638
2018-04-09T08:46:32.360Z,685
2018-04-09T08:47:32.353Z,725
2018-04-09T08:48:32.290Z,602
2018-04-09T08:49:32.361Z,707
2018-04-09T08:50:32.353Z,671
2018-04-09T08:51:32.323Z,704
2018-04-09T08:52:32.443Z,623
2018-04-09T08:53:32.255Z,625
2018-04-09T08:54:32.290Z,592
2018-04-09T08:55:32.368Z,625
2018-04-09T08:56:32.296Z,724
2018-04-09T08:57:32.336Z,701
2018-04-09T08:58:32.364Z,731
2018-04-09T08:59:32.288Z,634
2018-04-09T09:00:32.367Z,548
2018-04-09T09:01:32.335Z,564
2018-04-09T09:02:32.248Z,523
2018-04-09T09:03:32.378Z,557
2018-04-09T09:04:32.307Z,506
2018-04-09T09:05:32.381Z,503
2018-04-09T09:06:32.309Z,496
2018-04-09T09:07:32.382Z,569
2018-04-09T09:08:32.318Z,544
2018-04-09T09:09:32.382Z,522
2018-04-09T09:10:32.383Z,679
2018-04-09T09:11:32.310Z,776
2018-04-09T09:12:32.387Z,671
2018-04-09T09:13:32.386Z,747
2018-04-09T09:14:32.312Z,747
2018-04-09T09:15:32.401Z,668
2018-04-09T09:16:32.392Z,701
2018-04-09T09:17:32.351Z,585
2018-04-09T09:18:32.321Z,625
2018-04-09T09:19:32.319Z,566
2018-04-09T09:20:32.323Z,522
2018-04-09T09:21:32.388Z,561
2018-04-09T09:22:32.396Z,595
2018-04-09T09:23:32.215Z,475
2018-04-09T09:24:32.236Z,440
2018-04-09T09:25:32.265Z,423
2018-04-09T09:26:32.320Z,390
2018-04-09T09:27:32.264Z,381
2018-04-09T09:28:32.241Z,400
2018-04-09T09:29:32.220Z,454
2018-04-09T09:30:32.326Z,756
2018-04-09T09:31:32.280Z,726
2018-04-09T09:32:32.208Z,642
2018-04-09T09:33:32.298Z,537
2018-04-09T09:34:32.369Z,478
2018-04-09T09:35:32.376Z,455
2018-04-09T09:36:32.370Z,488
2018-04-09T09:37:32.495Z,633
2018-04-09T09:38:32.415Z,798
2018-04-09T09:39:32.414Z,852
2018-04-09T09:40:32.436Z,833
2018-04-09T09:41:32.429Z,881
2018-04-09T09:42:32.443Z,822
2018-04-09T09:43:32.377Z,797
2018-04-09T09:44:32.423Z,656
2018-04-09T09:45:32.363Z,601
2018-04-09T09:46:32.442Z,672
2018-04-09T09:47:32.438Z,677
2018-04-09T09:48:32.426Z,608
2018-04-09T09:49:32.406Z,568
2018-04-09T09:50:32.307Z,628
2018-04-09T09:51:32.424Z,633
2018-04-09T09:52:32.409Z,556
2018-04-09T09:53:32.404Z,493
2018-04-09T09:54:32.429Z,465
2018-04-09T09:55:32.381Z,488
2018-04-09T09:56:32.429Z,486
2018-04-09T09:57:32.327Z,509
2018-04-09T09:58:32.385Z,566
2018-04-09T09:59:32.430Z,631
2018-04-09T10:00:32.394Z,943
2018-04-09T10:01:32.309Z,985
2018-04-09T10:02:32.442Z,924
2018-04-09T10:03:32.427Z,715
2018-04-09T10:04:32.330Z,612
2018-04-09T10:05:32.444Z,538
2018-04-09T10:06:32.438Z,567
2018-04-09T10:07:32.412Z,517
2018-04-09T10:08:32.444Z,522
2018-04-09T10:09:32.381Z,521
2018-04-09T10:10:32.442Z,526
2018-04-09T10:11:32.439Z,589
2018-04-09T10:12:32.449Z,675
2018-04-09T10:13:32.285Z,938
2018-04-09T10:14:32.354Z,846
2018-04-09T10:15:32.336Z,750
2018-04-09T10:16:32.322Z,658
2018-04-09T10:17:32.290Z,827
2018-04-09T10:18:32.413Z,703
2018-04-09T10:19:32.416Z,576
2018-04-09T10:20:32.332Z,570
2018-04-09T10:21:32.405Z,559
2018-04-09T10:22:32.288Z,613
2018-04-09T10:23:32.422Z,597
2018-04-09T10:24:32.353Z,671
2018-04-09T10:25:32.431Z,740
2018-04-09T10:26:32.361Z,748
2018-04-09T10:27:32.427Z,738
2018-04-09T10:28:32.365Z,680
2018-04-09T10:29:32.425Z,645
2018-04-09T10:30:32.431Z,614
2018-04-09T10:31:32.362Z,563
2018-04-09T10:32:32.430Z,530
2018-04-09T10:33:32.361Z,605
2018-04-09T10:34:32.393Z,663
2018-04-09T10:35:32.365Z,665
2018-04-09T10:36:32.366Z,574
2018-04-09T10:37:32.426Z,500
2018-04-09T10:38:32.362Z,497
2018-04-09T10:39:32.363Z,492
2018-04-09T10:40:32.434Z,487
2018-04-09T10:41:32.365Z,476
2018-04-09T10:42:32.441Z,472
2018-04-09T10:43:32.435Z,499
2018-04-09T10:44:32.368Z,479
2018-04-09T10:45:32.400Z,519
2018-04-09T10:46:32.438Z,491
2018-04-09T10:47:32.440Z,475
2018-04-09T10:48:32.435Z,475
2018-04-09T10:49:32.444Z,473
2018-04-09T10:50:32.373Z,472
2018-04-09T10:51:32.443Z,480
2018-04-09T10:52:32.439Z,465
2018-04-09T10:53:32.482Z,453
2018-04-09T10:54:32.401Z,444
2018-04-09T10:55:32.351Z,443
2018-04-09T10:56:32.471Z,441
2018-04-09T10:57:32.398Z,431
2018-04-09T10:58:32.401Z,422
2018-04-09T10:59:32.491Z,420
2018-04-09T11:00:32.402Z,418
2018-04-09T11:01:32.386Z,421
2018-04-09T11:02:32.413Z,422
2018-04-09T11:03:32.488Z,419
2018-04-09T11:04:32.475Z,420
2018-04-09T11:05:32.470Z,414
2018-04-09T11:06:32.450Z,412
2018-04-09T11:07:32.420Z,409
2018-04-09T11:08:32.495Z,417
2018-04-09T11:09:32.448Z,411
2018-04-09T11:10:32.419Z,409
2018-04-09T11:11:32.449Z,419
2018-04-09T11:12:32.437Z,415
2018-04-09T11:13:32.494Z,423
2018-04-09T11:14:32.472Z,422
2018-04-09T11:15:32.451Z,424
2018-04-09T11:16:32.475Z,437
2018-04-09T11:17:32.484Z,450
2018-04-09T11:18:32.420Z,478
2018-04-09T11:19:32.479Z,514
2018-04-09T11:20:32.420Z,527
2018-04-09T11:21:32.493Z,584
2018-04-09T11:22:32.412Z,573
2018-04-09T11:23:32.393Z,624
2018-04-09T11:24:32.463Z,740
2018-04-09T11:25:32.468Z,658
2018-04-09T11:26:32.474Z,582
2018-04-09T11:27:32.399Z,563
2018-04-09T11:28:32.468Z,634
2018-04-09T11:29:32.471Z,687
2018-04-09T11:30:32.397Z,777
2018-04-09T11:31:32.467Z,696
2018-04-09T11:32:32.396Z,517
2018-04-09T11:33:32.484Z,496
2018-04-09T11:34:32.441Z,475
2018-04-09T11:35:32.464Z,458
2018-04-09T11:36:32.512Z,454
2018-04-09T11:37:32.373Z,447
2018-04-09T11:38:32.375Z,443
2018-04-09T11:39:32.383Z,447
2018-04-09T11:40:32.441Z,452
2018-04-09T11:41:32.475Z,481
2018-04-09T11:42:32.443Z,502
2018-04-09T11:43:32.384Z,525
2018-04-09T11:44:32.380Z,545
2018-04-09T11:45:32.381Z,680
2018-04-09T11:46:32.440Z,861
2018-04-09T11:47:32.508Z,806
2018-04-09T11:48:32.398Z,881
2018-04-09T11:49:32.518Z,980
2018-04-09T11:50:32.460Z,951
2018-04-09T11:51:32.480Z,826
2018-04-09T11:52:32.504Z,852
2018-04-09T11:53:32.510Z,905
2018-04-09T11:54:32.421Z,810
2018-04-09T11:55:32.524Z,702
2018-04-09T11:56:32.491Z,711
2018-04-09T11:57:32.463Z,615
2018-04-09T11:58:32.508Z,525
2018-04-09T11:59:32.627Z,474
2018-04-09T12:00:32.503Z,450
2018-04-09T12:01:32.520Z,461
2018-04-09T12:02:32.520Z,419
2018-04-09T12:03:32.421Z,504
2018-04-09T12:04:32.420Z,643
2018-04-09T12:05:32.493Z,631
2018-04-09T12:06:32.420Z,628
2018-04-09T12:07:32.431Z,639
2018-04-09T12:08:32.496Z,628
2018-04-09T12:09:32.428Z,557
2018-04-09T12:10:32.420Z,508
2018-04-09T12:11:32.493Z,453
2018-04-09T12:12:32.444Z,421
2018-04-09T12:13:32.525Z,391
2018-04-09T12:14:32.493Z,378
2018-04-09T12:15:32.498Z,368
2018-04-09T12:16:32.495Z,365
2018-04-09T12:17:32.459Z,367
2018-04-09T12:18:32.518Z,366
2018-04-09T12:19:32.526Z,367
2018-04-09T12:20:32.500Z,370
2018-04-09T12:21:32.407Z,375
2018-04-09T12:22:32.476Z,382
2018-04-09T12:23:32.466Z,393
2018-04-09T12:24:32.433Z,399
2018-04-09T12:25:32.509Z,412
2018-04-09T12:26:32.435Z,422
2018-04-09T12:27:32.446Z,430
2018-04-09T12:28:32.506Z,449
2018-04-09T12:29:32.435Z,454
2018-04-09T12:30:32.510Z,466
2018-04-09T12:31:32.525Z,471
2018-04-09T12:32:32.438Z,509
2018-04-09T12:33:32.411Z,552
2018-04-09T12:34:32.447Z,578
2018-04-09T12:35:32.472Z,667
2018-04-09T12:36:32.532Z,694
2018-04-09T12:37:32.478Z,793
2018-04-09T12:38:32.535Z,916
2018-04-09T12:39:32.433Z,910
2018-04-09T12:40:32.431Z,868
2018-04-09T12:41:32.421Z,886
2018-04-09T12:42:32.572Z,689
2018-04-09T12:43:32.381Z,692
2018-04-09T12:44:32.388Z,657
2018-04-09T12:45:32.509Z,688
2018-04-09T12:46:32.549Z,796
2018-04-09T12:47:32.435Z,753
2018-04-09T12:48:32.381Z,757
2018-04-09T12:49:32.425Z,703
2018-04-09T12:50:32.459Z,729
2018-04-09T12:51:32.516Z,731
2018-04-09T12:52:32.454Z,667
2018-04-09T12:53:32.544Z,595
2018-04-09T12:54:32.539Z,755
2018-04-09T12:55:32.519Z,761
2018-04-09T12:56:32.430Z,731
2018-04-09T12:57:32.495Z,600
2018-04-09T12:58:32.493Z,481
2018-04-09T12:59:32.557Z,418
2018-04-09T13:00:32.496Z,399
2018-04-09T13:01:32.583Z,390
2018-04-09T13:02:32.552Z,388
2018-04-09T13:03:32.525Z,368
2018-04-09T13:04:32.449Z,399
2018-04-09T13:05:32.482Z,401
2018-04-09T13:06:32.534Z,407
2018-04-09T13:07:32.454Z,433
2018-04-09T13:08:32.529Z,472
2018-04-09T13:09:32.460Z,470
2018-04-09T13:10:32.457Z,500
2018-04-09T13:11:32.526Z,515
2018-04-09T13:12:32.528Z,482
2018-04-09T13:13:32.483Z,473
2018-04-09T13:14:32.527Z,436
2018-04-09T13:15:32.485Z,428
2018-04-09T13:16:32.498Z,402
2018-04-09T13:17:32.474Z,387
2018-04-09T13:18:32.438Z,375
2018-04-09T13:19:32.554Z,367
2018-04-09T13:20:32.530Z,371
2018-04-09T13:21:32.502Z,359
2018-04-09T13:22:32.563Z,346
2018-04-09T13:23:32.499Z,337
2018-04-09T13:24:32.436Z,330
2018-04-09T13:25:32.493Z,325
2018-04-09T13:26:32.500Z,320
2018-04-09T13:27:32.505Z,319
2018-04-09T13:28:32.509Z,318
2018-04-09T13:29:32.493Z,320
2018-04-09T13:30:32.561Z,325
2018-04-09T13:31:32.513Z,336
2018-04-09T13:32:32.456Z,344
2018-04-09T13:33:32.501Z,354
2018-04-09T13:34:32.498Z,361
2018-04-09T13:35:32.482Z,349
2018-04-09T13:36:32.492Z,338
2018-04-09T13:37:32.544Z,337
2018-04-09T13:38:32.514Z,336
2018-04-09T13:39:32.541Z,337
2018-04-09T13:40:32.547Z,339
2018-04-09T13:41:32.474Z,338
2018-04-09T13:42:32.476Z,341
2018-04-09T13:43:32.543Z,345
2018-04-09T13:44:32.524Z,353
2018-04-09T13:45:32.481Z,360
2018-04-09T13:46:32.585Z,368
2018-04-09T13:47:32.517Z,373
2018-04-09T13:48:32.517Z,367
2018-04-09T13:49:32.552Z,374
2018-04-09T13:50:32.525Z,380
2018-04-09T13:51:32.578Z,385
2018-04-09T13:52:32.529Z,401
2018-04-09T13:53:32.505Z,434
2018-04-09T13:54:32.505Z,437
2018-04-09T13:55:32.515Z,411
2018-04-09T13:56:32.519Z,409
2018-04-09T13:57:32.516Z,408
2018-04-09T13:58:32.451Z,409
2018-04-09T13:59:32.573Z,412
2018-04-09T14:00:32.471Z,416
2018-04-09T14:01:32.520Z,411
2018-04-09T14:02:32.557Z,409
2018-04-09T14:03:32.584Z,417
2018-04-09T14:04:32.576Z,402
2018-04-09T14:05:32.552Z,386
2018-04-09T14:06:32.525Z,380
2018-04-09T14:07:32.574Z,365
2018-04-09T14:08:32.519Z,355
2018-04-09T14:09:32.467Z,345
2018-04-09T14:10:32.478Z,324
2018-04-09T14:11:32.598Z,315